Time;durP1;ratioP1;P1;durP2;ratioP2;P2;SDS_P1;SDS_P2;PMS_P1;PMS_P2;Temp;Humidity;BMP_temperature;BMP_pressure;BME280_temperature;BME280_humidity;BME280_pressure;Samples;Min_cycle;Max_cycle;Signal;HPM_P1;HPM_P2
2022/03/19 00:01:27;;;;;;;15.60;7.07;;;7.80;99.90;;;;;;4987554;28;20883;-76
2022/03/19 00:03:54;;;;;;;23.23;8.60;;;7.80;99.90;;;;;;4987752;28;20228;-76
2022/03/19 00:06:21;;;;;;;25.23;7.63;;;7.80;99.90;;;;;;4987684;28;20212;-75
2022/03/19 00:08:50;;;;;;;19.37;7.20;;;7.70;99.90;;;;;;4987524;28;20223;-75
2022/03/19 00:11:16;;;;;;;23.90;9.57;;;7.70;99.90;;;;;;4987344;28;20519;-74
2022/03/19 00:13:43;;;;;;;20.47;7.83;;;7.70;99.90;;;;;;4988101;28;20651;-74
2022/03/19 00:16:10;;;;;;;26.13;6.67;;;7.70;99.90;;;;;;4996764;28;20215;-75
2022/03/19 00:18:38;;;;;;;17.17;7.00;;;7.60;99.90;;;;;;5006726;28;20207;-75
2022/03/19 00:21:05;;;;;;;23.07;7.97;;;7.70;99.90;;;;;;5007132;28;20314;-75
2022/03/19 00:23:32;;;;;;;20.83;7.47;;;7.70;99.90;;;;;;5006846;28;20875;-75
2022/03/19 00:26:00;;;;;;;19.63;8.17;;;7.60;99.90;;;;;;4997148;28;20236;-75
2022/03/19 00:28:27;;;;;;;22.97;6.93;;;7.60;99.90;;;;;;4989141;28;20207;-75
2022/03/19 00:30:54;;;;;;;20.00;6.27;;;7.50;99.90;;;;;;4985985;28;20238;-77
2022/03/19 00:33:21;;;;;;;26.33;6.73;;;7.50;99.90;;;;;;4986320;28;20211;-73
2022/03/19 00:35:48;;;;;;;22.20;7.27;;;7.50;99.90;;;;;;5004303;28;20293;-75
2022/03/19 00:38:15;;;;;;;20.00;6.67;;;7.50;99.90;;;;;;5020562;28;20840;-75
2022/03/19 00:40:43;;;;;;;22.70;6.17;;;7.50;99.90;;;;;;5016787;28;20206;-75
2022/03/19 00:43:11;;;;;;;20.30;7.07;;;7.50;99.90;;;;;;5013082;28;20211;-76
2022/03/19 00:45:38;;;;;;;19.97;6.23;;;7.40;99.90;;;;;;5010573;28;20223;-75
2022/03/19 00:48:05;;;;;;;17.37;6.33;;;7.50;99.90;;;;;;5020625;28;20218;-75
2022/03/19 00:50:32;;;;;;;16.20;5.33;;;7.50;99.90;;;;;;5010293;28;20219;-74
2022/03/19 00:52:59;;;;;;;21.20;5.23;;;7.40;99.90;;;;;;5019379;28;20262;-75
2022/03/19 00:55:26;;;;;;;18.07;5.53;;;7.40;99.90;;;;;;5021136;28;20209;-74
2022/03/19 00:57:53;;;;;;;16.63;5.77;;;7.30;99.90;;;;;;5020698;28;20227;-75
2022/03/19 01:00:24;;;;;;;17.50;6.27;;;7.40;99.90;;;;;;5020323;28;20331;-74
2022/03/19 01:02:51;;;;;;;16.33;4.97;;;7.30;99.90;;;;;;5013076;28;20262;-76
2022/03/19 01:05:19;;;;;;;15.87;5.23;;;7.30;99.90;;;;;;5010222;28;20227;-76
2022/03/19 01:07:48;;;;;;;18.73;5.00;;;7.30;99.90;;;;;;5018371;28;20218;-75
2022/03/19 01:10:17;;;;;;;14.90;4.37;;;7.20;99.90;;;;;;5015869;28;20214;-75
2022/03/19 01:12:44;;;;;;;16.17;5.90;;;7.20;99.90;;;;;;5024880;28;20226;-75
2022/03/19 01:15:11;;;;;;;17.23;4.77;;;7.20;99.90;;;;;;5008292;28;20215;-75
2022/03/19 01:17:39;;;;;;;13.33;3.87;;;7.20;99.90;;;;;;5006312;28;20199;-76
2022/03/19 01:20:10;;;;;;;16.70;5.87;;;7.20;99.90;;;;;;5005945;28;20215;-76
2022/03/19 01:22:38;;;;;;;17.27;4.33;;;7.20;99.90;;;;;;5005229;28;20489;-75
2022/03/19 01:25:06;;;;;;;14.03;4.93;;;7.20;99.90;;;;;;5005978;28;20226;-76
2022/03/19 01:27:33;;;;;;;17.43;5.47;;;7.20;99.90;;;;;;5005807;28;20619;-76
2022/03/19 01:30:00;;;;;;;18.47;5.67;;;7.20;99.90;;;;;;5014418;28;20219;-74
2022/03/19 01:32:27;;;;;;;14.53;4.43;;;7.20;99.90;;;;;;5026098;28;20299;-75
2022/03/19 01:34:55;;;;;;;13.47;4.30;;;7.20;99.90;;;;;;5022876;28;20233;-75
2022/03/19 01:37:23;;;;;;;15.73;4.03;;;7.20;99.90;;;;;;5005866;28;20218;-75
2022/03/19 01:39:53;;;;;;;17.80;4.80;;;7.20;99.90;;;;;;5005751;28;20208;-75
2022/03/19 01:42:24;;;;;;;12.67;5.20;;;7.20;99.90;;;;;;5004931;28;20207;-74
2022/03/19 01:44:51;;;;;;;17.40;4.87;;;7.10;99.90;;;;;;5005460;28;20262;-75
2022/03/19 01:47:18;;;;;;;13.33;4.67;;;7.10;99.90;;;;;;5006101;28;20211;-75
2022/03/19 01:49:45;;;;;;;13.30;3.97;;;7.00;99.90;;;;;;5005427;28;20867;-75
2022/03/19 01:52:13;;;;;;;16.20;4.17;;;7.00;99.90;;;;;;5005880;28;20222;-75
2022/03/19 01:54:44;;;;;;;11.13;3.47;;;6.90;99.90;;;;;;5005611;28;20234;-75
2022/03/19 01:57:12;;;;;;;12.60;4.10;;;6.90;99.90;;;;;;5005183;28;20223;-75
2022/03/19 01:59:39;;;;;;;16.53;3.60;;;7.00;99.90;;;;;;5005069;28;20226;-74
2022/03/19 02:02:08;;;;;;;18.87;3.77;;;7.00;99.90;;;;;;5006053;28;20207;-76
2022/03/19 02:04:36;;;;;;;16.53;5.00;;;7.00;99.90;;;;;;5004964;28;20227;-75
2022/03/19 02:07:04;;;;;;;17.43;4.23;;;7.00;99.90;;;;;;5005131;28;20211;-75
2022/03/19 02:09:32;;;;;;;14.10;4.17;;;6.90;99.90;;;;;;5004515;28;20207;-75
2022/03/19 02:12:00;;;;;;;18.23;4.23;;;6.90;99.90;;;;;;5005104;28;20214;-76
2022/03/19 02:14:27;;;;;;;15.50;3.30;;;6.90;99.90;;;;;;5004720;28;20222;-74
2022/03/19 02:16:54;;;;;;;15.90;3.83;;;6.90;99.90;;;;;;5004661;28;20587;-75
2022/03/19 02:19:21;;;;;;;14.27;3.70;;;6.90;99.90;;;;;;5005428;28;20211;-75
2022/03/19 02:21:49;;;;;;;7.73;4.27;;;6.90;99.90;;;;;;5005167;28;20226;-75
2022/03/19 02:27:03;;;;;;;12.77;3.60;;;6.80;99.90;;;;;;5005640;28;20258;-75
2022/03/19 02:29:30;;;;;;;15.47;3.93;;;6.80;99.90;;;;;;5004517;28;20219;-74
2022/03/19 02:31:59;;;;;;;11.53;3.37;;;6.70;99.90;;;;;;5004558;28;20214;-76
2022/03/19 02:34:26;;;;;;;13.67;3.43;;;6.70;99.90;;;;;;5005083;28;20804;-75
2022/03/19 02:36:54;;;;;;;12.30;4.80;;;6.70;99.90;;;;;;5004405;28;20257;-75
2022/03/19 02:39:24;;;;;;;13.87;3.60;;;6.80;99.90;;;;;;5003942;28;20215;-76
2022/03/19 02:41:53;;;;;;;10.90;2.97;;;6.80;99.90;;;;;;5004457;28;20218;-76
2022/03/19 02:44:20;;;;;;;11.60;3.70;;;6.70;99.90;;;;;;5004349;28;20670;-75
2022/03/19 02:46:48;;;;;;;13.87;4.13;;;6.70;99.90;;;;;;5020773;28;20214;-75
2022/03/19 02:49:16;;;;;;;9.53;3.27;;;6.70;99.90;;;;;;5044592;28;20220;-75
2022/03/19 02:51:44;;;;;;;12.37;2.93;;;6.70;99.90;;;;;;5024173;28;20719;-76
2022/03/19 02:54:13;;;;;;;12.23;3.67;;;6.60;99.90;;;;;;5003815;28;20538;-75
2022/03/19 02:56:42;;;;;;;12.53;3.30;;;6.60;99.90;;;;;;5004536;28;20246;-74
2022/03/19 02:59:12;;;;;;;11.97;4.23;;;6.60;99.90;;;;;;5003707;28;20207;-76
2022/03/19 03:01:39;;;;;;;11.80;3.10;;;6.50;99.90;;;;;;5004668;28;20608;-76
2022/03/19 03:04:06;;;;;;;10.53;3.20;;;6.50;99.90;;;;;;5004959;28;20207;-76
2022/03/19 03:06:35;;;;;;;11.50;3.13;;;6.50;99.90;;;;;;5003414;28;20945;-75
2022/03/19 03:09:02;;;;;;;14.87;3.40;;;6.50;99.90;;;;;;5004671;28;20217;-76
2022/03/19 03:11:29;;;;;;;8.73;2.90;;;6.40;99.90;;;;;;5004169;28;20678;-75
2022/03/19 03:13:57;;;;;;;8.83;2.60;;;6.40;99.90;;;;;;5003228;28;20230;-75
2022/03/19 03:16:25;;;;;;;11.33;3.80;;;6.40;99.90;;;;;;5004666;28;20211;-75
2022/03/19 03:18:52;;;;;;;10.70;3.30;;;6.40;99.90;;;;;;5004475;28;20303;-74
2022/03/19 03:21:19;;;;;;;10.90;3.30;;;6.30;99.90;;;;;;5003904;28;20253;-75
2022/03/19 03:23:46;;;;;;;15.10;3.97;;;6.30;99.90;;;;;;5005006;28;20214;-74
2022/03/19 03:26:13;;;;;;;11.07;2.97;;;6.30;99.90;;;;;;5004740;28;20234;-75
2022/03/19 03:28:40;;;;;;;15.27;4.77;;;6.40;99.90;;;;;;5004054;28;20210;-74
2022/03/19 03:31:08;;;;;;;10.67;2.73;;;6.30;99.90;;;;;;5005007;28;20219;-73
2022/03/19 03:33:35;;;;;;;12.50;2.90;;;6.30;99.90;;;;;;5023660;28;20213;-76
2022/03/19 03:36:01;;;;;;;13.07;4.73;;;6.30;99.90;;;;;;5023422;28;20234;-75
2022/03/19 03:38:28;;;;;;;13.33;3.93;;;6.20;99.90;;;;;;5013262;28;20218;-75
2022/03/19 03:40:55;;;;;;;12.20;3.83;;;6.20;99.90;;;;;;5003927;28;20203;-74
2022/03/19 03:43:22;;;;;;;16.13;3.10;;;6.30;99.90;;;;;;5003226;28;20248;-75
2022/03/19 03:45:49;;;;;;;13.07;3.30;;;6.20;99.90;;;;;;5003781;28;20635;-76
2022/03/19 03:48:17;;;;;;;11.60;4.07;;;6.20;99.90;;;;;;5031600;28;20771;-75
2022/03/19 03:50:44;;;;;;;12.27;3.37;;;6.20;99.90;;;;;;5043531;28;20493;-77
2022/03/19 03:53:10;;;;;;;14.53;3.40;;;6.20;99.90;;;;;;5043976;28;20218;-75
2022/03/19 03:55:39;;;;;;;12.13;3.67;;;6.20;99.90;;;;;;5007226;28;20218;-75
2022/03/19 03:58:08;;;;;;;11.53;4.17;;;6.20;99.90;;;;;;5003764;28;20215;-74
2022/03/19 04:00:34;;;;;;;8.53;3.03;;;6.30;99.90;;;;;;5003953;28;20219;-75
2022/03/19 04:03:03;;;;;;;11.90;3.33;;;6.30;99.90;;;;;;5003591;28;20955;-75
2022/03/19 04:05:33;;;;;;;11.13;3.43;;;6.20;99.90;;;;;;5005468;28;20710;-75
2022/03/19 04:08:00;;;;;;;9.20;3.63;;;6.20;99.90;;;;;;5007739;28;20590;-76
2022/03/19 04:10:27;;;;;;;14.40;4.27;;;6.10;99.90;;;;;;5006567;28;20219;-74
2022/03/19 04:12:54;;;;;;;11.30;3.77;;;6.10;99.90;;;;;;5006930;28;20280;-75
2022/03/19 04:15:21;;;;;;;12.00;3.57;;;6.10;99.90;;;;;;5007453;28;20207;-75
2022/03/19 04:17:47;;;;;;;14.73;3.20;;;6.10;99.90;;;;;;5006887;28;20215;-75
2022/03/19 04:20:15;;;;;;;14.33;3.97;;;6.10;99.90;;;;;;5006483;28;20217;-75
2022/03/19 04:22:44;;;;;;;13.13;3.20;;;6.10;99.90;;;;;;5007499;28;20207;-75
2022/03/19 04:25:13;;;;;;;9.67;3.53;;;6.10;99.90;;;;;;5006720;28;20211;-76
2022/03/19 04:27:40;;;;;;;10.13;4.07;;;6.10;99.90;;;;;;5007046;28;20203;-75
2022/03/19 04:30:09;;;;;;;13.13;4.20;;;6.10;99.90;;;;;;5007068;28;20545;-76
2022/03/19 04:32:41;;;;;;;15.93;4.23;;;6.10;99.90;;;;;;5006724;28;20210;-75
2022/03/19 04:37:51;;;;;;;19.20;5.97;;;6.20;99.90;;;;;;5005989;28;20199;-76
2022/03/19 04:40:18;;;;;;;9.30;4.43;;;6.10;99.90;;;;;;5006846;28;20312;-76
2022/03/19 04:42:45;;;;;;;15.63;5.00;;;6.10;99.90;;;;;;5007087;28;20799;-75
2022/03/19 04:45:13;;;;;;;19.60;5.17;;;6.20;99.90;;;;;;5006837;28;20218;-74
2022/03/19 04:47:40;;;;;;;11.93;4.17;;;6.10;99.90;;;;;;5012115;28;20912;-74
2022/03/19 04:50:07;;;;;;;16.50;5.13;;;6.10;99.90;;;;;;5006219;28;20218;-75
2022/03/19 04:52:35;;;;;;;17.00;5.50;;;6.10;99.90;;;;;;5006508;28;20218;-76
2022/03/19 04:55:04;;;;;;;15.17;5.67;;;6.00;99.90;;;;;;5025125;28;20305;-76
2022/03/19 04:57:31;;;;;;;21.77;7.10;;;6.00;99.90;;;;;;5026087;28;20258;-76
2022/03/19 04:59:59;;;;;;;12.80;5.30;;;6.10;99.90;;;;;;5026093;28;20210;-76
2022/03/19 05:02:26;;;;;;;16.13;5.67;;;6.00;99.90;;;;;;5016059;28;20265;-75
2022/03/19 05:04:53;;;;;;;16.30;6.73;;;5.90;99.90;;;;;;5006228;28;20601;-76
2022/03/19 05:07:20;;;;;;;21.17;6.57;;;6.00;99.90;;;;;;5006056;28;20227;-74
2022/03/19 05:12:33;;;;;;;18.37;6.63;;;6.00;99.90;;;;;;5006441;28;20210;-75
2022/03/19 05:15:00;;;;;;;20.73;6.67;;;6.00;99.90;;;;;;5005589;28;20709;-74
2022/03/19 05:17:27;;;;;;;19.33;7.13;;;5.90;99.90;;;;;;5006124;28;20207;-75
2022/03/19 05:19:54;;;;;;;17.30;7.23;;;5.90;99.90;;;;;;5005815;28;20203;-75
2022/03/19 05:22:21;;;;;;;18.90;7.67;;;5.90;99.90;;;;;;5006281;28;20832;-75
2022/03/19 05:24:48;;;;;;;19.33;7.40;;;5.90;99.90;;;;;;5006374;28;20207;-74
2022/03/19 05:27:15;;;;;;;15.30;8.23;;;5.90;99.90;;;;;;5005553;28;20852;-74
2022/03/19 05:29:43;;;;;;;20.07;8.70;;;5.90;99.90;;;;;;5006818;28;20525;-75
2022/03/19 05:32:10;;;;;;;23.30;7.47;;;5.90;99.90;;;;;;5006165;28;20878;-73
2022/03/19 05:34:37;;;;;;;19.43;7.87;;;5.90;99.90;;;;;;5005267;28;20358;-75
2022/03/19 05:37:05;;;;;;;16.17;8.00;;;5.90;99.90;;;;;;5006531;28;20531;-75
2022/03/19 05:39:35;;;;;;;18.43;8.20;;;5.90;99.90;;;;;;5005913;28;20222;-75
2022/03/19 05:42:02;;;;;;;25.03;8.57;;;5.90;99.90;;;;;;5004795;28;20215;-75
2022/03/19 05:44:29;;;;;;;17.27;8.73;;;6.00;99.90;;;;;;5005556;28;20231;-75
2022/03/19 05:46:58;;;;;;;16.73;8.70;;;6.00;99.90;;;;;;5011528;28;20229;-75
2022/03/19 05:49:25;;;;;;;18.63;8.67;;;6.00;99.90;;;;;;5045064;28;20213;-76
2022/03/19 05:51:51;;;;;;;23.03;9.10;;;6.00;99.90;;;;;;5023249;28;20222;-75
2022/03/19 05:54:18;;;;;;;22.93;9.40;;;5.90;99.90;;;;;;5005624;28;20203;-75
2022/03/19 05:56:45;;;;;;;17.30;9.20;;;5.90;99.90;;;;;;5004301;28;20239;-76
2022/03/19 05:59:12;;;;;;;22.57;10.63;;;5.90;99.90;;;;;;5005547;28;20219;-76
2022/03/19 06:01:41;;;;;;;25.30;9.13;;;5.90;99.90;;;;;;5005489;28;20698;-75
2022/03/19 06:04:10;;;;;;;21.60;9.50;;;6.00;99.90;;;;;;5004439;28;20329;-76
2022/03/19 06:06:37;;;;;;;19.83;10.03;;;6.10;99.90;;;;;;5005518;28;21080;-75
2022/03/19 06:09:04;;;;;;;22.43;9.93;;;6.10;99.90;;;;;;5005240;28;20211;-76
2022/03/19 06:11:32;;;;;;;17.70;8.80;;;6.10;99.90;;;;;;5005114;28;20207;-75
2022/03/19 06:13:59;;;;;;;22.67;11.10;;;6.10;99.90;;;;;;5005366;28;20222;-74
2022/03/19 06:16:26;;;;;;;20.47;9.27;;;6.10;99.90;;;;;;5005364;28;20222;-75
2022/03/19 06:18:53;;;;;;;21.47;9.03;;;6.10;99.90;;;;;;5005284;28;20214;-73
2022/03/19 06:21:23;;;;;;;23.90;10.63;;;6.10;99.90;;;;;;5005762;28;20208;-74
2022/03/19 06:23:50;;;;;;;20.33;9.47;;;6.10;99.90;;;;;;5005054;28;20318;-75
2022/03/19 06:26:20;;;;;;;22.50;8.77;;;6.10;99.90;;;;;;5004353;28;20235;-75
2022/03/19 06:28:46;;;;;;;16.17;9.13;;;6.20;99.90;;;;;;5004428;28;20218;-76
2022/03/19 06:31:13;;;;;;;15.50;8.40;;;6.20;99.90;;;;;;5004484;28;20222;-76
2022/03/19 06:33:41;;;;;;;19.57;8.87;;;6.20;99.90;;;;;;5004833;28;20412;-78
2022/03/19 06:38:54;;;;;;;14.73;7.90;;;6.20;99.90;;;;;;5004490;28;20240;-76
2022/03/19 06:41:22;;;;;;;17.03;9.90;;;6.20;99.90;;;;;;5004536;28;20785;-75
2022/03/19 06:43:48;;;;;;;19.27;8.80;;;6.20;99.90;;;;;;5004274;28;20219;-76
2022/03/19 06:46:16;;;;;;;15.13;7.57;;;6.20;99.90;;;;;;5004126;28;20230;-76
2022/03/19 06:48:42;;;;;;;17.70;7.83;;;6.30;99.90;;;;;;5039576;28;20214;-76
2022/03/19 06:51:09;;;;;;;20.13;8.37;;;6.20;99.90;;;;;;5029647;28;20293;-75
2022/03/19 06:53:38;;;;;;;17.37;9.23;;;6.20;99.90;;;;;;5004621;28;20879;-76
2022/03/19 06:56:06;;;;;;;20.50;8.60;;;6.30;99.90;;;;;;5004111;28;20235;-75
2022/03/19 06:58:33;;;;;;;18.70;8.77;;;6.40;99.90;;;;;;5004414;28;20207;-75
2022/03/19 07:01:00;;;;;;;24.57;8.73;;;6.30;99.90;;;;;;5004960;28;21367;-74
2022/03/19 07:03:27;;;;;;;19.27;7.40;;;6.30;99.90;;;;;;5003863;28;20210;-75
2022/03/19 07:05:54;;;;;;;20.67;8.53;;;6.40;99.90;;;;;;5004269;28;20215;-76
2022/03/19 07:08:21;;;;;;;19.60;8.63;;;6.40;99.90;;;;;;5004722;28;20203;-75
2022/03/19 07:10:48;;;;;;;25.83;8.20;;;6.40;99.90;;;;;;5004515;28;20218;-75
2022/03/19 07:13:18;;;;;;;16.13;8.07;;;6.50;99.90;;;;;;5011170;28;20210;-73
2022/03/19 07:15:44;;;;;;;15.67;8.10;;;6.50;99.90;;;;;;5024623;28;20598;-73
2022/03/19 07:18:11;;;;;;;14.00;7.00;;;6.60;99.90;;;;;;5017076;28;20210;-75
2022/03/19 07:20:38;;;;;;;19.13;7.77;;;6.60;99.90;;;;;;5003797;28;20705;-76
2022/03/19 07:23:07;;;;;;;18.20;7.30;;;6.60;99.90;;;;;;5004418;28;20218;-75
2022/03/19 07:25:36;;;;;;;11.80;7.13;;;6.70;99.90;;;;;;5003924;28;20951;-75
2022/03/19 07:28:06;;;;;;;15.50;6.90;;;6.70;99.90;;;;;;5003666;28;20231;-75
2022/03/19 07:30:35;;;;;;;15.63;6.70;;;6.70;99.90;;;;;;5003805;28;20199;-75
2022/03/19 07:33:02;;;;;;;16.97;7.10;;;6.70;99.90;;;;;;5003880;28;20225;-75
2022/03/19 07:35:29;;;;;;;19.47;8.67;;;6.80;99.90;;;;;;5003434;28;20242;-76
2022/03/19 07:37:57;;;;;;;13.47;6.03;;;6.90;99.90;;;;;;5004499;28;20904;-76
2022/03/19 07:43:11;;;;;;;12.37;5.33;;;7.00;99.90;;;;;;5008434;28;20378;-75
2022/03/19 07:45:41;;;;;;;11.87;5.80;;;7.00;99.90;;;;;;5008153;28;20238;-75
2022/03/19 07:48:08;;;;;;;15.00;4.50;;;7.10;99.90;;;;;;5032698;28;20230;-76
2022/03/19 07:50:35;;;;;;;14.63;4.93;;;7.20;99.90;;;;;;5047748;28;20206;-74
2022/03/19 07:53:02;;;;;;;18.23;5.53;;;7.20;99.90;;;;;;5025550;28;20215;-76
2022/03/19 07:55:29;;;;;;;8.90;3.90;;;7.30;99.90;;;;;;5006974;28;20219;-77
2022/03/19 07:57:56;;;;;;;10.37;3.90;;;7.50;99.90;;;;;;5007786;28;20902;-75
2022/03/19 08:00:23;;;;;;;10.07;4.37;;;7.50;99.90;;;;;;5007791;28;20217;-75
2022/03/19 08:02:51;;;;;;;10.23;3.73;;;7.50;99.90;;;;;;5006825;28;20211;-76
2022/03/19 08:05:18;;;;;;;15.13;5.00;;;7.60;99.90;;;;;;5007570;28;20329;-75
2022/03/19 08:07:45;;;;;;;9.17;4.10;;;7.70;99.90;;;;;;5007692;28;20230;-75
2022/03/19 08:10:13;;;;;;;13.87;4.13;;;7.80;99.90;;;;;;5006502;28;20350;-75
2022/03/19 08:12:42;;;;;;;7.53;3.33;;;7.90;99.90;;;;;;5007253;28;20762;-76
2022/03/19 08:15:11;;;;;;;10.10;3.03;;;8.00;99.90;;;;;;5007283;28;20230;-76
2022/03/19 08:17:38;;;;;;;6.53;3.37;;;8.10;99.90;;;;;;5006799;28;20217;-79
2022/03/19 08:20:08;;;;;;;8.57;3.47;;;8.20;99.90;;;;;;5007460;28;20230;-77
2022/03/19 08:22:35;;;;;;;8.67;3.53;;;8.20;99.90;;;;;;5005984;28;20854;-78
2022/03/19 08:25:03;;;;;;;8.63;3.53;;;8.30;99.90;;;;;;5006698;28;20207;-77
2022/03/19 08:27:31;;;;;;;15.93;3.50;;;8.30;99.90;;;;;;4972925;28;20307;-77
2022/03/19 08:29:59;;;;;;;11.73;3.60;;;8.30;99.90;;;;;;5006985;28;20219;-76
2022/03/19 08:32:26;;;;;;;9.13;3.73;;;8.30;99.90;;;;;;5007031;28;20324;-77
2022/03/19 08:34:53;;;;;;;11.47;4.53;;;8.40;99.90;;;;;;5007362;28;20242;-76
2022/03/19 08:37:21;;;;;;;9.50;4.10;;;8.50;99.90;;;;;;5005942;28;20298;-76
2022/03/19 08:42:33;;;;;;;11.43;4.40;;;8.60;99.90;;;;;;5006956;28;20245;-75
2022/03/19 08:45:00;;;;;;;12.63;4.50;;;8.70;99.90;;;;;;5005788;28;20215;-76
2022/03/19 08:47:29;;;;;;;13.60;4.57;;;8.70;99.90;;;;;;5021211;28;20813;-76
2022/03/19 08:49:56;;;;;;;11.77;4.67;;;8.90;99.90;;;;;;5046871;28;20245;-76
2022/03/19 08:52:26;;;;;;;10.83;3.43;;;9.00;99.90;;;;;;5005101;28;20242;-76
2022/03/19 08:54:53;;;;;;;14.27;4.37;;;9.20;99.90;;;;;;4991972;28;20332;-77
2022/03/19 08:57:20;;;;;;;8.73;3.70;;;9.30;99.90;;;;;;5006700;28;20964;-76
2022/03/19 08:59:47;;;;;;;10.70;4.13;;;9.40;99.90;;;;;;5006573;28;20533;-76
2022/03/19 09:02:14;;;;;;;12.23;4.17;;;9.60;99.90;;;;;;5005946;28;20901;-78
2022/03/19 09:04:40;;;;;;;10.57;4.13;;;9.70;99.90;;;;;;5006125;28;20215;-76
2022/03/19 09:07:07;;;;;;;11.30;3.97;;;9.70;99.90;;;;;;5004984;28;20242;-77
2022/03/19 09:09:36;;;;;;;11.97;4.23;;;9.80;99.90;;;;;;5005534;28;20304;-76
2022/03/19 09:12:03;;;;;;;14.67;3.67;;;9.90;99.90;;;;;;5006310;28;20247;-76
2022/03/19 09:14:30;;;;;;;12.20;4.10;;;10.00;99.90;;;;;;5006236;28;20219;-78
2022/03/19 09:16:57;;;;;;;11.70;3.50;;;10.00;99.90;;;;;;5006219;28;20214;-78
2022/03/19 09:19:27;;;;;;;11.00;4.40;;;10.00;99.90;;;;;;5004674;28;20266;-78
2022/03/19 09:21:54;;;;;;;11.43;4.10;;;10.00;99.90;;;;;;5006464;28;20211;-77
2022/03/19 09:24:21;;;;;;;10.07;3.40;;;10.00;99.90;;;;;;5005070;28;20329;-77
2022/03/19 09:26:49;;;;;;;13.10;4.00;;;10.10;99.90;;;;;;5005318;28;20257;-77
2022/03/19 09:29:16;;;;;;;10.93;3.67;;;10.20;99.90;;;;;;5006069;28;20342;-77
2022/03/19 09:31:43;;;;;;;9.83;3.97;;;10.30;99.90;;;;;;5006105;28;20222;-78
2022/03/19 09:34:10;;;;;;;6.23;3.00;;;10.30;99.90;;;;;;5004872;28;20219;-78
2022/03/19 09:36:37;;;;;;;11.43;4.50;;;10.40;99.90;;;;;;5004708;28;20270;-77
2022/03/19 09:39:05;;;;;;;7.97;4.10;;;10.50;99.90;;;;;;5004765;28;20241;-77
2022/03/19 09:41:32;;;;;;;9.90;3.57;;;10.70;99.90;;;;;;5004628;28;20219;-77
2022/03/19 09:44:01;;;;;;;5.93;2.80;;;10.80;99.90;;;;;;5004868;28;20614;-78
2022/03/19 09:46:28;;;;;;;9.63;3.60;;;10.80;99.90;;;;;;5004824;28;20211;-77
2022/03/19 09:48:55;;;;;;;8.07;3.43;;;11.00;99.90;;;;;;5044283;28;20226;-75
2022/03/19 09:51:23;;;;;;;8.23;3.07;;;11.20;99.90;;;;;;5045530;28;20212;-77
2022/03/19 09:53:50;;;;;;;8.23;3.80;;;11.30;99.90;;;;;;5045929;28;20216;-77
2022/03/19 09:56:17;;;;;;;10.53;3.60;;;11.50;99.90;;;;;;5013171;28;20230;-76
2022/03/19 09:58:44;;;;;;;8.93;3.17;;;11.70;99.90;;;;;;5005589;28;20235;-78
2022/03/19 10:01:12;;;;;;;12.03;3.70;;;11.80;99.90;;;;;;5004304;28;20203;-78
2022/03/19 10:03:41;;;;;;;9.27;3.43;;;11.70;99.90;;;;;;5005097;28;20278;-76
2022/03/19 10:08:58;;;;;;;6.80;3.27;;;12.00;99.90;;;;;;5023653;28;20285;-78
2022/03/19 10:11:30;;;;;;;10.37;3.23;;;12.20;99.90;;;;;;5017331;28;20211;-78
2022/03/19 10:13:57;;;;;;;7.70;3.03;;;12.30;99.90;;;;;;5004742;28;20226;-76
2022/03/19 10:16:28;;;;;;;9.00;3.37;;;12.40;99.90;;;;;;5013099;28;20670;-78
2022/03/19 10:18:56;;;;;;;8.47;3.07;;;12.60;99.90;;;;;;5024847;28;20203;-76
2022/03/19 10:21:24;;;;;;;8.17;3.67;;;12.60;99.90;;;;;;5025091;28;20301;-77
2022/03/19 10:23:51;;;;;;;7.63;3.67;;;12.50;99.90;;;;;;5024009;28;20509;-76
2022/03/19 10:26:26;;;;;;;8.17;3.10;;;12.60;99.90;;;;;;5024557;28;20218;-74
2022/03/19 10:28:58;;;;;;;10.43;3.10;;;12.80;99.90;;;;;;5019603;28;20227;-76
2022/03/19 10:31:34;;;;;;;4.40;2.67;;;12.80;99.90;;;;;;5003859;28;20207;-77
2022/03/19 10:34:02;;;;;;;7.23;3.10;;;12.80;99.90;;;;;;5004686;28;20210;-78
2022/03/19 10:36:34;;;;;;;9.13;2.90;;;12.90;99.90;;;;;;5004821;28;20235;-77
2022/03/19 10:39:07;;;;;;;8.20;2.97;;;13.00;99.90;;;;;;5016366;28;20610;-77
2022/03/19 10:41:35;;;;;;;5.23;2.50;;;13.20;99.90;;;;;;5021039;28;20215;-78
2022/03/19 10:44:12;;;;;;;5.93;2.63;;;13.20;99.90;;;;;;5016952;28;20898;-76
2022/03/19 10:46:43;;;;;;;8.33;2.80;;;13.20;99.90;;;;;;5016645;28;20214;-75
2022/03/19 10:49:14;;;;;;;7.87;2.30;;;13.10;99.90;;;;;;5036101;28;20231;-76
2022/03/19 10:51:44;;;;;;;6.97;2.30;;;13.20;99.90;;;;;;5004637;28;20299;-77
2022/03/19 10:54:14;;;;;;;8.47;2.70;;;13.30;99.90;;;;;;5004420;28;20522;-77
2022/03/19 10:56:41;;;;;;;4.53;2.47;;;13.40;99.90;;;;;;5004963;28;20513;-77
2022/03/19 10:59:08;;;;;;;5.77;2.50;;;13.50;99.90;;;;;;5003964;28;20589;-78
2022/03/19 11:01:36;;;;;;;6.77;2.43;;;13.70;99.90;;;;;;5004212;28;20904;-76
2022/03/19 11:04:07;;;;;;;6.30;2.93;;;13.70;99.90;;;;;;5004485;28;20222;-74
2022/03/19 11:06:38;;;;;;;6.13;2.47;;;13.60;99.90;;;;;;5004567;28;20247;-78
2022/03/19 11:09:09;;;;;;;9.67;2.50;;;13.40;99.90;;;;;;5004685;28;20254;-75
2022/03/19 11:11:44;;;;;;;6.07;2.43;;;13.20;99.90;;;;;;5007535;28;20206;-75
2022/03/19 11:14:17;;;;;;;8.37;3.50;;;13.10;99.90;;;;;;5013496;28;20210;-78
2022/03/19 11:17:23;;;;;;;6.17;2.60;;;13.30;99.90;;;;;;5015527;28;20246;-75
2022/03/19 11:19:36;;;;;;;5.40;2.77;;;13.40;99.90;;;;;;5014526;28;20266;-77
2022/03/19 11:22:03;;;;;;;6.83;2.47;;;13.40;99.90;;;;;;5010557;28;20225;-76
2022/03/19 11:24:32;;;;;;;8.23;2.70;;;13.40;99.90;;;;;;5012013;28;20218;-74
2022/03/19 11:27:00;;;;;;;10.17;3.00;;;13.30;99.90;;;;;;5012252;28;20230;-78
2022/03/19 11:29:27;;;;;;;7.10;2.67;;;13.20;99.90;;;;;;5019390;28;20222;-77
2022/03/19 11:31:58;;;;;;;6.97;2.67;;;13.40;99.90;;;;;;5010322;28;20239;-78
2022/03/19 11:34:25;;;;;;;8.50;2.80;;;13.60;99.90;;;;;;5012797;28;20219;-78
2022/03/19 11:36:57;;;;;;;6.00;2.57;;;13.70;99.90;;;;;;5011334;28;20329;-78
2022/03/19 11:39:24;;;;;;;7.57;2.83;;;13.70;99.90;;;;;;5019313;28;20199;-80
2022/03/19 11:41:52;;;;;;;6.50;2.53;;;13.50;99.90;;;;;;5006868;28;20238;-77
2022/03/19 11:44:23;;;;;;;8.50;2.53;;;13.20;99.90;;;;;;5011922;28;20247;-78
2022/03/19 11:46:57;;;;;;;11.97;3.40;;;13.20;99.90;;;;;;5020516;28;20547;-76
2022/03/19 11:49:50;;;;;;;8.63;3.10;;;13.30;99.90;;;;;;5042774;28;20221;-80
2022/03/19 11:52:39;;;;;;;9.53;2.63;;;13.30;99.90;;;;;;5023908;28;20316;-80
2022/03/19 11:55:10;;;;;;;9.93;3.03;;;13.30;99.90;;;;;;5004392;28;20227;-75
2022/03/19 11:58:03;;;;;;;10.77;2.60;;;13.10;99.90;;;;;;5004864;28;20223;-78
2022/03/19 12:00:32;;;;;;;6.23;2.53;;;13.30;99.90;;;;;;4990311;28;20211;-77
2022/03/19 12:03:15;;;;;;;5.30;2.40;;;13.40;99.90;;;;;;5004599;28;20207;-78
2022/03/19 12:05:44;;;;;;;6.10;3.00;;;13.50;99.90;;;;;;5003747;28;20215;-76
2022/03/19 12:08:15;;;;;;;8.30;2.60;;;13.70;99.90;;;;;;5003425;28;20230;-76
2022/03/19 12:10:57;;;;;;;6.80;2.60;;;13.60;99.90;;;;;;5004186;28;20223;-77
2022/03/19 12:13:43;;;;;;;7.63;2.83;;;13.70;99.90;;;;;;5004013;28;20216;-77
2022/03/19 12:16:12;;;;;;;6.77;3.10;;;13.70;99.90;;;;;;5003279;28;20215;-78
2022/03/19 12:18:47;;;;;;;6.70;2.50;;;13.50;99.90;;;;;;5004348;28;20278;-78
2022/03/19 12:21:21;;;;;;;6.93;2.23;;;13.50;99.90;;;;;;5003696;28;20266;-76
2022/03/19 12:24:19;;;;;;;9.33;2.70;;;13.50;99.90;;;;;;5003256;28;20219;-77
2022/03/19 12:26:49;;;;;;;8.70;2.20;;;13.70;99.90;;;;;;4983621;28;20219;-76
2022/03/19 12:29:17;;;;;;;4.80;1.80;;;13.90;99.90;;;;;;5006202;28;20231;-79
2022/03/19 12:31:48;;;;;;;6.30;2.00;;;13.90;99.90;;;;;;5007945;28;20226;-80
2022/03/19 12:34:16;;;;;;;5.83;2.30;;;13.90;99.90;;;;;;5007446;28;20362;-75
2022/03/19 12:36:44;;;;;;;5.37;2.00;;;13.90;99.90;;;;;;5006974;28;20333;-76
2022/03/19 12:39:11;;;;;;;6.67;2.37;;;13.70;99.90;;;;;;5007432;28;20214;-79
2022/03/19 12:41:40;;;;;;;6.37;2.10;;;13.70;99.90;;;;;;5008043;28;20211;-79
2022/03/19 12:44:11;;;;;;;7.57;2.13;;;13.80;99.90;;;;;;5007163;28;20303;-78
2022/03/19 12:46:41;;;;;;;4.50;2.17;;;13.60;99.90;;;;;;5008810;28;20223;-77
2022/03/19 12:49:10;;;;;;;5.87;2.10;;;13.60;99.90;;;;;;5046910;28;20224;-76
2022/03/19 12:51:39;;;;;;;5.20;2.30;;;13.70;99.90;;;;;;5046591;28;20206;-76
2022/03/19 12:54:21;;;;;;;9.40;2.33;;;13.80;99.90;;;;;;5047572;28;20241;-79
2022/03/19 12:56:50;;;;;;;6.67;1.97;;;13.80;99.90;;;;;;5019328;28;20230;-77
2022/03/19 12:59:19;;;;;;;3.53;2.00;;;13.90;99.90;;;;;;5006538;28;20207;-77
2022/03/19 13:01:46;;;;;;;5.97;2.47;;;13.90;99.90;;;;;;5007279;28;20218;-78
2022/03/19 13:04:20;;;;;;;7.37;2.10;;;13.90;99.90;;;;;;5006206;28;20224;-79
2022/03/19 13:06:47;;;;;;;5.03;2.17;;;13.80;99.90;;;;;;5007449;28;20296;-78
2022/03/19 13:09:14;;;;;;;5.20;2.20;;;13.50;99.90;;;;;;5007139;28;20230;-77
2022/03/19 13:11:44;;;;;;;7.10;1.90;;;13.40;99.90;;;;;;5008024;28;20665;-79
2022/03/19 13:14:14;;;;;;;4.57;2.07;;;13.40;99.90;;;;;;5007517;28;20212;-79